• Join FlightAware (Why Join?)
  • Login
  • US Flag 
12:06PM EDT


 

Airport Tracker/Info


-or-


 

Live Flight TrackerFlight Track Log ✈ EZY6723 ✈ 22-Apr-2013 ✈ EGAA / BFS - LFPG / CDG

Flight Track Log - Related Links

Times and Time Zones

All times are in EDT time to prevent confusion due to time zone crossing. See the EZY6723 flight status page for this flight to view local times or setup timezone preferences in your user account.

Time Position Orientation Groundspeed Altitude Reporting Facility
EDT Latitude Longitude Course Direction KTS MPH feet Rate Location/Type
08:41AM 54.0962 -5.1853 133° Southeast  Level Estimated
08:42AM 54.0396 -5.0837 133° Southeast  Level Estimated
08:43AM 53.9829 -4.9825 134° Southeast  Level Estimated
08:44AM 53.9261 -4.8815 134° Southeast  Level Estimated
08:45AM 53.8692 -4.7809 134° Southeast  Level Estimated
08:46AM 53.8123 -4.6804 134° Southeast  Level Estimated
08:47AM 53.7552 -4.5803 134° Southeast  Level Estimated
08:48AM 53.6981 -4.4804 134° Southeast  Level Estimated
08:49AM 53.6409 -4.3808 134° Southeast  Level Estimated
08:50AM 53.5836 -4.2815 134° Southeast  Level Estimated
08:51AM 53.5263 -4.1824 134° Southeast  Level Estimated
08:52AM 53.4688 -4.0837 134° Southeast  Level Estimated
08:53AM 53.4113 -3.9851 134° Southeast  Level Estimated
08:54AM 53.3537 -3.8869 134° Southeast  Level Estimated
08:55AM 53.2884 -3.7761 135° Southeast  Level Estimated
08:56AM 53.2231 -3.6656 135° Southeast  Level Estimated
08:57AM 53.1576 -3.5554 135° Southeast  Level Estimated
08:58AM 53.0921 -3.4457 135° Southeast  Level Estimated
08:59AM 53.0264 -3.3362 135° Southeast  Level Estimated
09:00AM 52.9607 -3.2271 135° Southeast  Level Estimated
09:01AM 52.8948 -3.1183 135° Southeast  Level Estimated
09:02AM 52.8289 -3.0098 135° Southeast  Level Estimated
09:03AM 52.7628 -2.9016 135° Southeast  Level Estimated
09:04AM 52.6967 -2.7938 135° Southeast  Level Estimated
09:05AM 52.6304 -2.6864 135° Southeast  Level Estimated
09:06AM 52.5641 -2.5792 136° Southeast  Level Estimated
09:07AM 52.4977 -2.4724 136° Southeast  Level Estimated
09:08AM 52.4311 -2.3658 136° Southeast  Level Estimated
09:09AM 52.3645 -2.2597 136° Southeast  Level Estimated
09:10AM 52.2977 -2.1538 136° Southeast  Level Estimated
09:11AM 52.2309 -2.0482 136° Southeast  Level Estimated
09:12AM 52.1640 -1.9430 136° Southeast  Level Estimated
09:13AM 52.0970 -1.8381 136° Southeast  Level Estimated
09:14AM 52.0299 -1.7335 136° Southeast  Level Estimated
09:15AM 51.9627 -1.6292 136° Southeast  Level Estimated
09:16AM 51.8954 -1.5252 136° Southeast  Level Estimated
09:17AM 51.8280 -1.4216 136° Southeast  Level Estimated
09:18AM 51.7606 -1.3182 137° Southeast  Level Estimated
09:19AM 51.6930 -1.2151 137° Southeast  Level Estimated
09:20AM 51.6254 -1.1124 137° Southeast  Level Estimated
09:21AM 51.5576 -1.0100 137° Southeast  Level Estimated
09:22AM 51.4898 -0.9078 137° Southeast  Level Estimated
09:23AM 51.4219 -0.8060 137° Southeast  Level Estimated
09:24AM 51.3539 -0.7045 137° Southeast  Level Estimated
09:25AM 51.2858 -0.6033 137° Southeast  Level Estimated
09:26AM 51.2176 -0.5023 137° Southeast  Level Estimated
09:27AM 51.1493 -0.4017 137° Southeast  Level Estimated
09:28AM 51.0810 -0.3014 137° Southeast  Level Estimated
09:29AM 51.0126 -0.2014 137° Southeast  Level Estimated
09:30AM 50.9440 -0.1016 137° Southeast  Level Estimated
09:31AM 50.8754 -0.0022 138° Southeast  Level Estimated
09:32AM 50.8067 0.0970 138° Southeast  Level Estimated
09:33AM 50.7380 0.1958 138° Southeast  Level Estimated
09:34AM 50.6691 0.2944 138° Southeast  Level Estimated
09:35AM 50.6002 0.3927 138° Southeast  Level Estimated
09:36AM 50.5312 0.4907 138° Southeast  Level Estimated
09:37AM 50.4621 0.5884 138° Southeast  Level Estimated
09:38AM 50.3929 0.6858 138° Southeast  Level Estimated
09:39AM 50.3236 0.7829 138° Southeast  Level Estimated
09:40AM 50.2517 0.8834 138° Southeast  Level Estimated
09:41AM 50.1797 0.9835 138° Southeast  Level Estimated
09:42AM 50.1076 1.0833 138° Southeast  Level Estimated
09:43AM 50.0354 1.1829 138° Southeast  Level Estimated
09:44AM 49.9632 1.2821 139° Southeast  Level Estimated
09:45AM 49.8908 1.3810 139° Southeast  Level Estimated
09:46AM 49.8184 1.4797 139° Southeast  Level Estimated
09:47AM 49.7459 1.5780 139° Southeast  Level Estimated
09:48AM 49.6733 1.6760 139° Southeast  Level Estimated
09:49AM 49.6006 1.7738 139° Southeast  Level Estimated
09:50AM 49.5278 1.8713 139° Southeast  Level Estimated
09:51AM 49.4550 1.9684 139° Southeast  Level Estimated
09:52AM 49.3821 2.0653 139° Southeast  Level Estimated
09:53AM 49.3091 2.1619 139° Southeast  Level Estimated
09:54AM 49.2360 2.2582 139° Southeast  Level Estimated
09:55AM 49.1628 2.3543 139° Southeast  Level Estimated
09:56AM 49.0896 2.4500 139° Southeast  Level Estimated
09:57AM 49.0163 2.5455 139° Southeast  Level Estimated
09:58AM 49.0128 2.5500 140° Southeast  Level Estimated
09:59AM 49.0128 2.5500 180° South  Level Estimated
10:00AM 49.0128 2.5500 180° South  Level Estimated
10:01AM 49.0128 2.5500 180° South  Level Estimated
10:02AM 49.0128 2.5500 180° South  Level Estimated
10:03AM 49.0128 2.5500 180° South  Level Estimated
10:04AM 49.0128 2.5500 180° South  Level Estimated
10:05AM 49.0128 2.5500 180° South  Level Estimated
10:06AM 49.0128 2.5500 180° South  Level Estimated
10:07AM 49.0128 2.5500 180° South  Level Estimated
10:08AM 49.0128 2.5500 180° South  Level Estimated